Terminal Aerodrome Forecast
Issued by NWS Charleston, WV

Current Version | Previous Version | Graphics & Text | Print | Product List | Glossary On
Versions: 1 2 3 4 5 6 7 8 9 10 11 12 13 14 15 16 17 18 19 20 21 22 23 24 25 26 27 28 29 30
000
FTUS41 KRLX 210900 AAC
TAFEKN
TAF AMD
KEKN 210941Z 2110/2206 00000KT 1SM BR BKN002
      TEMPO 2110/2112 3SM BR SCT002
     FM211300 VRB03KT 4SM BR SCT003 SCT050
     FM211400 VRB03KT P6SM FEW005 SCT050
     FM212000 14004KT P6SM VCSH BKN040
     FM220300 00000KT 4SM BR SCT050
     FM220400 00000KT 2SM BR SCT060=

USA.gov is the U.S. government's official web portal to all federal, state and local government web resources and services.